Time;durP1;ratioP1;P1;durP2;ratioP2;P2;SDS_P1;SDS_P2;PMS_P1;PMS_P2;Temp;Humidity;BMP_temperature;BMP_pressure;BME280_temperature;BME280_humidity;BME280_pressure;Samples;Min_cycle;Max_cycle;Signal;HPM_P1;HPM_P2
2022/07/03 00:01:30;;;;;;;2.50;2.30;;;22.00;82.70;;;;;;6276844;28;20691;-70
2022/07/03 00:04:33;;;;;;;2.53;2.20;;;22.00;82.60;;;;;;6276973;28;20237;-70
2022/07/03 00:07:38;;;;;;;2.40;2.20;;;21.90;82.40;;;;;;6277495;28;20224;-70
2022/07/03 00:10:42;;;;;;;2.53;2.10;;;21.80;83.00;;;;;;6276652;28;20293;-71
2022/07/03 00:13:45;;;;;;;2.50;2.13;;;21.80;83.60;;;;;;6277348;28;20226;-71
2022/07/03 00:16:49;;;;;;;2.43;2.23;;;21.80;83.80;;;;;;6277939;28;20219;-71
2022/07/03 00:19:52;;;;;;;2.47;2.27;;;21.80;83.40;;;;;;6277660;28;20234;-70
2022/07/03 00:22:55;;;;;;;2.13;2.00;;;21.80;83.40;;;;;;6277692;28;20230;-71
2022/07/03 00:26:03;;;;;;;3.40;2.60;;;21.70;83.50;;;;;;6277228;28;20234;-71
2022/07/03 00:29:09;;;;;;;2.23;2.07;;;21.70;83.80;;;;;;6277017;28;20236;-71
2022/07/03 00:32:14;;;;;;;2.50;2.13;;;21.70;84.10;;;;;;6277229;28;20232;-71
2022/07/03 00:35:18;;;;;;;2.73;2.20;;;21.60;83.80;;;;;;6277160;28;20223;-71
2022/07/03 00:38:22;;;;;;;2.30;2.20;;;21.60;83.60;;;;;;6276358;28;21763;-71
2022/07/03 00:41:28;;;;;;;2.70;2.50;;;21.50;84.30;;;;;;6274564;28;20228;-71
2022/07/03 00:44:35;;;;;;;3.47;2.27;;;21.40;84.00;;;;;;6275328;28;20220;-71
2022/07/03 00:47:38;;;;;;;2.57;2.37;;;21.40;84.20;;;;;;6276667;28;20234;-71
2022/07/03 00:50:46;;;;;;;2.40;2.13;;;21.30;84.40;;;;;;6276008;28;20569;-70
2022/07/03 00:53:52;;;;;;;2.50;2.30;;;21.30;84.40;;;;;;6275085;28;20318;-70
2022/07/03 00:57:00;;;;;;;1.93;1.83;;;21.30;84.60;;;;;;6275508;28;20220;-72
2022/07/03 01:00:05;;;;;;;2.73;2.53;;;21.30;84.10;;;;;;6277212;28;20594;-72
2022/07/03 01:03:14;;;;;;;2.13;1.90;;;21.20;84.30;;;;;;6275551;28;20227;-72
2022/07/03 01:06:17;;;;;;;2.60;2.00;;;21.20;85.40;;;;;;6272923;28;20224;-72
2022/07/03 01:09:33;;;;;;;2.60;2.40;;;21.20;84.30;;;;;;6276177;28;20796;-70
2022/07/03 01:12:54;;;;;;;2.73;2.30;;;21.10;84.60;;;;;;6276343;28;20563;-70
2022/07/03 01:16:06;;;;;;;2.23;2.00;;;21.00;84.80;;;;;;6275928;28;20238;-70
2022/07/03 01:19:26;;;;;;;2.13;1.97;;;21.00;84.90;;;;;;6276125;28;20672;-71
2022/07/03 01:22:35;;;;;;;2.70;2.20;;;21.00;85.00;;;;;;6276328;28;20243;-70
2022/07/03 01:25:44;;;;;;;2.07;1.93;;;20.90;85.00;;;;;;6276337;28;20274;-70
2022/07/03 01:28:49;;;;;;;4.20;2.20;;;20.90;84.90;;;;;;6275628;28;20243;-71
2022/07/03 01:31:55;;;;;;;2.70;2.50;;;20.80;84.60;;;;;;6275695;28;20228;-70
2022/07/03 01:34:59;;;;;;;2.97;2.23;;;20.80;85.00;;;;;;6275810;28;20220;-70
2022/07/03 01:38:06;;;;;;;4.70;2.17;;;20.80;84.90;;;;;;6275681;28;20235;-69
2022/07/03 01:41:12;;;;;;;2.33;2.13;;;20.70;85.40;;;;;;6275459;28;20228;-69
2022/07/03 01:44:16;;;;;;;2.60;2.00;;;20.70;85.90;;;;;;6274931;28;20224;-71
2022/07/03 01:47:20;;;;;;;2.67;2.43;;;20.60;86.60;;;;;;6275284;28;20232;-71
2022/07/03 01:50:30;;;;;;;2.37;2.17;;;20.60;85.80;;;;;;6274731;28;20534;-71
2022/07/03 01:53:34;;;;;;;2.43;2.20;;;20.60;86.10;;;;;;6275246;28;20234;-71
2022/07/03 01:56:38;;;;;;;1.87;1.77;;;20.60;85.80;;;;;;6275240;28;20227;-71
2022/07/03 01:59:42;;;;;;;2.33;2.13;;;20.50;86.50;;;;;;6274221;28;20574;-71
2022/07/03 02:02:54;;;;;;;6.30;2.10;;;20.50;85.90;;;;;;6274899;28;20689;-71
2022/07/03 02:06:05;;;;;;;2.90;2.70;;;20.40;86.30;;;;;;6273948;28;20669;-70
2022/07/03 02:09:11;;;;;;;2.63;2.43;;;20.40;86.50;;;;;;6274912;28;20274;-70
2022/07/03 02:12:37;;;;;;;2.67;2.47;;;20.30;86.40;;;;;;6274652;28;20250;-70
2022/07/03 02:15:44;;;;;;;2.40;2.20;;;20.30;86.80;;;;;;6274922;28;20239;-70
2022/07/03 02:18:58;;;;;;;2.23;2.13;;;20.20;87.10;;;;;;6274677;28;20224;-70
2022/07/03 02:22:03;;;;;;;2.77;2.20;;;20.20;87.40;;;;;;6274319;28;20234;-70
2022/07/03 02:25:08;;;;;;;2.80;2.60;;;20.10;87.20;;;;;;6274841;28;20192;-70
2022/07/03 02:28:24;;;;;;;2.33;2.23;;;20.10;87.60;;;;;;6275075;28;20223;-71
2022/07/03 02:31:29;;;;;;;2.60;2.40;;;20.10;87.70;;;;;;6275427;28;20366;-71
2022/07/03 02:34:34;;;;;;;2.47;2.27;;;20.00;87.40;;;;;;6274805;28;20274;-71
2022/07/03 02:37:45;;;;;;;2.27;2.10;;;20.00;87.60;;;;;;6275236;28;20228;-71
2022/07/03 02:40:58;;;;;;;2.47;2.27;;;19.90;87.90;;;;;;6275171;28;20224;-70
2022/07/03 02:44:11;;;;;;;2.60;2.27;;;20.00;88.30;;;;;;6274724;28;20220;-70
2022/07/03 02:47:22;;;;;;;5.97;2.60;;;19.90;87.90;;;;;;6274721;28;20245;-71
2022/07/03 02:50:28;;;;;;;3.00;2.77;;;19.90;88.10;;;;;;6274394;28;20239;-71
2022/07/03 02:53:39;;;;;;;4.67;2.20;;;19.90;88.00;;;;;;6274345;28;20240;-70
2022/07/03 02:56:54;;;;;;;2.80;2.60;;;19.90;89.10;;;;;;6274369;28;20231;-71
2022/07/03 03:00:04;;;;;;;2.70;2.50;;;19.80;88.10;;;;;;6273984;28;20556;-71
2022/07/03 03:03:09;;;;;;;2.83;2.63;;;19.80;88.30;;;;;;6274438;28;20237;-71
2022/07/03 03:06:14;;;;;;;2.37;2.27;;;19.80;88.30;;;;;;6264532;28;20235;-71
2022/07/03 03:09:23;;;;;;;2.13;2.03;;;19.80;88.30;;;;;;6274088;28;20232;-70
2022/07/03 03:12:31;;;;;;;2.97;2.37;;;19.80;89.10;;;;;;6274081;28;20238;-70
2022/07/03 03:15:37;;;;;;;2.40;2.20;;;19.80;88.50;;;;;;6274225;28;20673;-70
2022/07/03 03:18:42;;;;;;;2.83;2.63;;;19.80;88.80;;;;;;6278576;28;20241;-70
2022/07/03 03:21:56;;;;;;;3.43;2.80;;;19.80;89.10;;;;;;6278805;28;20236;-71
2022/07/03 03:25:02;;;;;;;3.00;2.80;;;19.90;88.80;;;;;;6278560;28;20228;-71
2022/07/03 03:28:05;;;;;;;2.50;2.30;;;19.80;88.30;;;;;;6278478;28;20235;-70
2022/07/03 03:31:11;;;;;;;2.60;2.40;;;19.80;88.60;;;;;;6278317;28;20203;-71
2022/07/03 03:34:14;;;;;;;2.10;2.00;;;19.80;88.50;;;;;;6278988;28;20199;-71
2022/07/03 03:37:18;;;;;;;2.93;2.60;;;19.90;88.80;;;;;;6278407;28;20545;-71
2022/07/03 03:40:21;;;;;;;3.23;2.93;;;19.80;88.80;;;;;;6278068;28;20236;-71
2022/07/03 03:43:24;;;;;;;3.33;2.80;;;19.80;89.20;;;;;;6278400;28;20232;-71
2022/07/03 03:46:29;;;;;;;2.50;2.20;;;19.80;89.50;;;;;;6278265;28;20239;-70
2022/07/03 03:49:32;;;;;;;2.13;2.03;;;19.90;89.70;;;;;;6277939;28;20249;-70
2022/07/03 03:52:35;;;;;;;2.77;2.53;;;19.90;89.70;;;;;;6278102;28;20234;-70
2022/07/03 03:55:38;;;;;;;3.30;3.10;;;19.90;89.70;;;;;;6278361;28;20224;-70
2022/07/03 03:58:43;;;;;;;3.33;2.77;;;20.00;89.80;;;;;;6278315;28;20219;-71
2022/07/03 04:01:48;;;;;;;2.60;2.40;;;20.10;89.50;;;;;;6280226;28;20224;-71
2022/07/03 04:04:51;;;;;;;3.20;2.90;;;20.00;89.30;;;;;;6277780;28;20228;-71
2022/07/03 04:07:54;;;;;;;2.60;2.40;;;20.00;89.40;;;;;;6272874;28;20285;-69
2022/07/03 04:10:57;;;;;;;2.83;2.63;;;20.00;89.40;;;;;;6277504;28;20235;-70
2022/07/03 04:14:00;;;;;;;2.93;2.37;;;20.10;89.60;;;;;;6277363;28;20812;-71
2022/07/03 04:17:05;;;;;;;4.57;2.60;;;20.20;89.40;;;;;;6277318;28;20239;-70
2022/07/03 04:20:10;;;;;;;2.83;2.63;;;20.20;89.30;;;;;;6277627;28;20236;-71
2022/07/03 04:23:13;;;;;;;5.30;3.20;;;20.30;89.40;;;;;;6277722;28;20228;-71
2022/07/03 04:26:16;;;;;;;3.07;2.87;;;20.40;89.30;;;;;;6276782;28;20234;-71
2022/07/03 04:29:19;;;;;;;2.80;2.60;;;20.50;89.50;;;;;;6276552;28;20228;-71
2022/07/03 04:32:24;;;;;;;3.33;3.10;;;20.50;89.40;;;;;;6277409;28;20223;-71
2022/07/03 04:35:27;;;;;;;3.50;2.47;;;20.60;89.30;;;;;;6277388;28;20239;-71
2022/07/03 04:38:31;;;;;;;2.83;2.63;;;20.80;89.40;;;;;;6277207;28;20236;-71
2022/07/03 04:41:35;;;;;;;2.70;2.50;;;20.80;89.20;;;;;;6276463;28;20564;-72
2022/07/03 04:44:38;;;;;;;2.70;2.50;;;21.00;89.20;;;;;;6277110;28;20696;-72
2022/07/03 04:47:42;;;;;;;3.00;2.40;;;21.10;88.60;;;;;;6277902;28;20681;-72
2022/07/03 04:50:45;;;;;;;3.47;2.90;;;21.20;88.50;;;;;;6277207;28;20239;-72
2022/07/03 04:53:49;;;;;;;2.80;2.60;;;21.30;88.30;;;;;;6276634;28;20250;-72
2022/07/03 04:56:52;;;;;;;3.33;3.03;;;21.50;88.00;;;;;;6279302;28;20243;-72
2022/07/03 04:59:55;;;;;;;3.60;2.67;;;21.70;87.80;;;;;;6278915;28;20278;-71
2022/07/03 05:03:00;;;;;;;2.70;2.53;;;21.80;87.10;;;;;;6278244;28;20224;-71
2022/07/03 05:06:04;;;;;;;2.70;2.50;;;21.90;86.60;;;;;;6276721;28;20234;-71
2022/07/03 05:09:07;;;;;;;2.53;2.43;;;22.00;86.30;;;;;;6276420;28;20238;-72
2022/07/03 05:12:10;;;;;;;3.00;2.80;;;22.10;86.10;;;;;;6275982;28;20242;-72
2022/07/03 05:15:13;;;;;;;3.30;2.50;;;22.20;85.70;;;;;;6266589;28;20231;-72
2022/07/03 05:18:18;;;;;;;3.33;3.03;;;22.20;85.60;;;;;;6275776;28;20236;-72
2022/07/03 05:21:24;;;;;;;3.20;3.00;;;22.30;85.60;;;;;;6276010;28;20220;-72
2022/07/03 05:24:27;;;;;;;3.17;2.87;;;22.30;85.00;;;;;;6275707;28;20228;-71
2022/07/03 05:27:30;;;;;;;3.60;3.30;;;22.40;84.00;;;;;;6275426;28;20676;-71
2022/07/03 05:30:33;;;;;;;3.83;3.47;;;22.40;84.20;;;;;;6275775;28;20232;-70
2022/07/03 05:33:38;;;;;;;3.60;2.93;;;22.40;84.10;;;;;;6275849;28;20273;-71
2022/07/03 05:36:41;;;;;;;3.23;3.03;;;22.40;84.50;;;;;;6275714;28;20580;-72
2022/07/03 05:39:44;;;;;;;3.70;3.40;;;22.60;84.10;;;;;;6275456;28;20235;-72
2022/07/03 05:42:48;;;;;;;3.13;2.83;;;22.60;83.80;;;;;;6275175;28;20281;-72
2022/07/03 05:45:51;;;;;;;4.40;3.30;;;22.80;84.30;;;;;;6275445;28;20227;-72
2022/07/03 05:48:55;;;;;;;3.60;3.30;;;23.10;83.20;;;;;;6274936;28;20231;-72
2022/07/03 05:51:59;;;;;;;3.00;2.80;;;23.30;82.10;;;;;;6276126;28;20703;-73
2022/07/03 05:55:02;;;;;;;3.23;3.03;;;23.50;81.30;;;;;;6275393;28;20228;-71
2022/07/03 05:58:05;;;;;;;3.97;2.60;;;23.70;80.70;;;;;;6275026;28;20240;-70
2022/07/03 06:01:08;;;;;;;3.43;3.13;;;23.90;80.10;;;;;;6274809;28;20497;-71
2022/07/03 06:04:13;;;;;;;3.00;2.70;;;24.10;78.90;;;;;;6275278;28;20204;-70
2022/07/03 06:07:16;;;;;;;3.27;3.03;;;24.10;77.80;;;;;;6275096;28;20206;-70
2022/07/03 06:10:19;;;;;;;3.83;3.20;;;24.30;77.80;;;;;;6274843;28;20231;-70
2022/07/03 06:13:23;;;;;;;5.83;3.00;;;25.00;76.80;;;;;;6278070;28;20660;-70
2022/07/03 06:16:26;;;;;;;3.07;2.87;;;25.30;75.10;;;;;;6265833;28;20227;-70
2022/07/03 06:19:30;;;;;;;4.00;3.60;;;25.60;74.50;;;;;;6275102;28;20309;-70
2022/07/03 06:22:34;;;;;;;3.30;3.00;;;26.00;73.50;;;;;;6274490;28;20562;-71
2022/07/03 06:25:37;;;;;;;3.05;2.85;;;26.50;71.60;;;;;;6273743;28;20447;-72
2022/07/03 06:28:40;;;;;;;3.50;3.20;;;27.10;70.10;;;;;;6274647;28;20238;-71
2022/07/03 06:31:43;;;;;;;2.90;2.70;;;27.80;68.00;;;;;;6274541;28;20227;-71
2022/07/03 06:34:48;;;;;;;3.60;3.30;;;28.40;65.70;;;;;;6274631;28;20692;-71
2022/07/03 06:37:51;;;;;;;4.50;3.83;;;29.00;63.80;;;;;;6274297;28;20218;-71
2022/07/03 06:40:54;;;;;;;4.03;3.40;;;29.20;62.80;;;;;;6274830;28;20223;-71
2022/07/03 06:43:57;;;;;;;3.10;2.80;;;29.80;60.50;;;;;;6274584;28;20241;-72
2022/07/03 06:47:02;;;;;;;3.40;3.20;;;30.40;59.40;;;;;;6274683;28;20652;-72
2022/07/03 06:50:08;;;;;;;3.05;2.30;;;30.90;58.70;;;;;;6273829;28;20676;-72
2022/07/03 06:53:12;;;;;;;4.90;3.55;;;31.10;57.80;;;;;;6278541;28;20280;-71
2022/07/03 06:56:15;;;;;;;2.75;2.50;;;31.10;57.40;;;;;;6279311;28;20237;-70
2022/07/03 06:59:18;;;;;;;3.72;3.42;;;31.30;57.60;;;;;;6278915;28;20226;-69
2022/07/03 07:02:21;;;;;;;3.50;3.30;;;31.50;56.80;;;;;;6279078;28;20547;-69
2022/07/03 07:05:25;;;;;;;3.05;2.75;;;31.60;55.90;;;;;;6279338;28;20262;-72
2022/07/03 07:08:29;;;;;;;10.55;3.03;;;31.90;54.20;;;;;;6278868;28;20241;-70
2022/07/03 07:11:32;;;;;;;3.75;3.00;;;32.20;52.50;;;;;;6278702;28;20668;-72
2022/07/03 07:14:35;;;;;;;2.72;2.53;;;32.00;51.40;;;;;;6279272;28;20222;-71
2022/07/03 07:17:38;;;;;;;3.13;2.92;;;32.50;50.30;;;;;;6278821;28;20227;-72
2022/07/03 07:20:43;;;;;;;2.42;2.22;;;33.10;50.60;;;;;;6274268;28;20227;-71
2022/07/03 07:23:46;;;;;;;3.67;3.03;;;33.50;49.40;;;;;;6283235;28;20262;-70
2022/07/03 07:26:49;;;;;;;2.78;2.58;;;34.00;48.80;;;;;;6283037;28;20253;-70
2022/07/03 07:29:52;;;;;;;3.00;2.30;;;34.30;47.90;;;;;;6281963;28;20235;-70
2022/07/03 07:32:55;;;;;;;2.60;2.40;;;35.30;46.30;;;;;;6280040;28;20223;-71
2022/07/03 07:36:00;;;;;;;2.70;2.50;;;35.80;45.30;;;;;;6278705;28;20592;-72
2022/07/03 07:39:03;;;;;;;2.50;2.10;;;35.50;45.20;;;;;;6278425;28;20247;-72
2022/07/03 07:42:06;;;;;;;2.63;2.42;;;35.70;42.50;;;;;;6279923;28;20231;-70
2022/07/03 07:45:10;;;;;;;4.60;3.03;;;35.90;43.00;;;;;;6282495;28;20237;-70
2022/07/03 07:48:13;;;;;;;5.18;2.83;;;35.10;43.00;;;;;;6285697;28;20227;-70
2022/07/03 07:51:18;;;;;;;3.03;2.70;;;35.20;43.60;;;;;;6282271;28;20227;-70
2022/07/03 07:54:21;;;;;;;2.80;2.60;;;35.20;43.50;;;;;;6278526;28;20231;-70
2022/07/03 07:57:24;;;;;;;2.95;2.65;;;34.70;43.50;;;;;;6279264;28;20234;-71
2022/07/03 08:00:27;;;;;;;3.42;2.35;;;34.30;43.70;;;;;;6277023;28;20227;-71
2022/07/03 08:06:52;;;;;;;3.17;2.58;;;32.80;46.30;;;;;;6278383;28;20369;-71
2022/07/03 08:09:55;;;;;;;2.63;2.42;;;32.60;46.80;;;;;;6277452;28;20227;-67
2022/07/03 08:12:58;;;;;;;3.05;2.85;;;32.30;47.60;;;;;;6277448;28;20649;-68
2022/07/03 08:16:02;;;;;;;3.80;2.80;;;32.00;48.40;;;;;;6278272;28;20227;-70
2022/07/03 08:19:05;;;;;;;3.35;3.05;;;31.70;48.90;;;;;;6278825;28;20238;-70
2022/07/03 08:22:09;;;;;;;3.05;2.75;;;31.70;49.80;;;;;;6278672;28;20195;-72
2022/07/03 08:25:13;;;;;;;3.60;2.40;;;31.50;49.50;;;;;;6276430;28;20200;-71
2022/07/03 08:28:16;;;;;;;3.85;2.92;;;31.20;49.80;;;;;;6280243;28;20219;-71
2022/07/03 08:31:19;;;;;;;3.35;3.05;;;31.00;50.30;;;;;;6275918;28;20218;-71
2022/07/03 08:34:22;;;;;;;3.00;2.58;;;30.90;50.90;;;;;;6277343;28;20227;-72
2022/07/03 08:37:28;;;;;;;2.33;2.17;;;30.80;51.20;;;;;;6276693;28;20282;-72
2022/07/03 08:40:32;;;;;;;3.80;2.55;;;30.80;51.50;;;;;;6272112;28;20231;-71
2022/07/03 08:43:37;;;;;;;2.50;2.30;;;30.60;52.30;;;;;;6275086;28;20219;-67
2022/07/03 08:46:41;;;;;;;3.20;2.90;;;30.50;52.40;;;;;;6276055;28;20320;-67
2022/07/03 08:49:45;;;;;;;3.00;2.80;;;30.50;52.70;;;;;;6275282;28;20583;-66
2022/07/03 08:52:50;;;;;;;3.53;3.22;;;30.40;52.70;;;;;;6275094;28;20226;-68
2022/07/03 08:55:53;;;;;;;4.25;2.92;;;30.20;53.20;;;;;;6275770;28;20219;-70
2022/07/03 08:58:58;;;;;;;3.80;3.50;;;30.30;53.20;;;;;;6279029;28;20562;-71
2022/07/03 09:02:01;;;;;;;5.25;3.60;;;30.30;53.40;;;;;;6278517;28;20245;-72
2022/07/03 09:05:07;;;;;;;2.97;2.78;;;30.30;54.20;;;;;;6275620;28;20223;-68
2022/07/03 09:08:12;;;;;;;3.38;2.67;;;30.20;54.40;;;;;;6275849;28;20241;-68
2022/07/03 09:11:15;;;;;;;3.20;3.00;;;30.20;55.10;;;;;;6275651;28;20552;-67
2022/07/03 09:14:18;;;;;;;3.58;3.03;;;29.90;55.80;;;;;;6275809;28;20241;-70
2022/07/03 09:17:22;;;;;;;3.47;3.17;;;29.80;55.80;;;;;;6276712;28;20242;-70
2022/07/03 09:20:31;;;;;;;3.50;3.20;;;29.80;56.40;;;;;;6275682;28;20242;-70
2022/07/03 09:23:39;;;;;;;3.22;3.03;;;30.00;55.60;;;;;;6274476;28;20261;-68
2022/07/03 09:26:51;;;;;;;4.00;3.58;;;30.10;55.70;;;;;;6275905;28;20223;-70
2022/07/03 09:30:00;;;;;;;3.20;3.00;;;30.20;55.80;;;;;;6266735;28;20684;-69
2022/07/03 09:33:03;;;;;;;3.50;3.30;;;30.00;55.70;;;;;;6275796;28;20243;-66
2022/07/03 09:36:06;;;;;;;3.23;3.03;;;29.00;57.90;;;;;;6275344;28;20231;-66
2022/07/03 09:39:23;;;;;;;3.50;3.10;;;29.10;58.20;;;;;;6275320;28;20246;-67
2022/07/03 09:42:26;;;;;;;3.50;3.00;;;29.30;58.30;;;;;;6275324;28;20238;-67
2022/07/03 09:45:50;;;;;;;3.57;3.27;;;29.60;57.90;;;;;;6273973;28;20242;-67
2022/07/03 09:48:54;;;;;;;3.10;2.90;;;29.80;57.60;;;;;;6273101;28;20681;-66
2022/07/03 09:51:58;;;;;;;3.55;3.25;;;30.00;57.10;;;;;;6270707;28;20759;-67
2022/07/03 09:55:15;;;;;;;3.70;3.40;;;30.10;56.90;;;;;;6273212;28;20247;-68
2022/07/03 09:58:19;;;;;;;3.17;2.95;;;30.10;57.00;;;;;;6271869;28;20239;-68
2022/07/03 10:01:23;;;;;;;3.53;3.17;;;30.10;57.40;;;;;;6274735;28;20199;-67
2022/07/03 10:04:27;;;;;;;4.20;3.67;;;30.20;57.30;;;;;;6274179;28;20245;-68
2022/07/03 10:07:30;;;;;;;3.72;3.42;;;30.20;57.40;;;;;;6274683;28;20237;-67
2022/07/03 10:10:36;;;;;;;3.38;3.17;;;30.10;57.80;;;;;;6274497;28;20226;-67
2022/07/03 10:13:41;;;;;;;3.78;3.47;;;30.20;57.90;;;;;;6275182;28;20227;-67
2022/07/03 10:16:44;;;;;;;3.30;3.00;;;30.20;58.40;;;;;;6274011;28;20215;-67
2022/07/03 10:19:48;;;;;;;3.22;3.03;;;30.30;58.30;;;;;;6273318;28;20227;-66
2022/07/03 10:22:51;;;;;;;6.00;3.75;;;30.40;58.10;;;;;;6274053;28;20688;-67
2022/07/03 10:25:56;;;;;;;4.30;2.95;;;30.30;57.80;;;;;;6272140;28;20532;-67
2022/07/03 10:29:01;;;;;;;3.78;3.47;;;30.20;57.90;;;;;;6274526;28;20344;-68
2022/07/03 10:32:08;;;;;;;3.70;3.40;;;30.40;57.80;;;;;;6270088;28;20215;-67
2022/07/03 10:35:13;;;;;;;3.47;3.28;;;30.40;58.00;;;;;;6273731;28;20242;-72
2022/07/03 10:38:37;;;;;;;3.47;3.20;;;30.50;58.20;;;;;;6273884;28;20553;-69
2022/07/03 10:45:11;;;;;;;3.83;3.53;;;30.80;57.60;;;;;;6273159;28;20234;-67
2022/07/03 10:48:15;;;;;;;4.07;3.55;;;30.60;58.10;;;;;;6271129;28;20223;-68
2022/07/03 10:51:18;;;;;;;3.13;2.80;;;30.40;57.90;;;;;;6273658;28;20536;-66
2022/07/03 10:54:22;;;;;;;4.35;3.67;;;30.50;57.80;;;;;;6273255;28;20549;-66
2022/07/03 10:57:27;;;;;;;3.60;3.35;;;30.60;58.10;;;;;;6273650;28;20223;-66
2022/07/03 11:00:30;;;;;;;3.45;3.15;;;30.80;58.00;;;;;;6271226;28;20540;-66
2022/07/03 11:03:54;;;;;;;4.07;3.63;;;30.90;58.10;;;;;;6273803;28;20230;-68
2022/07/03 11:07:10;;;;;;;3.83;3.53;;;30.90;57.80;;;;;;6273710;28;20224;-67
2022/07/03 11:10:40;;;;;;;3.50;3.20;;;30.30;58.30;;;;;;6273759;28;20231;-66
2022/07/03 11:14:17;;;;;;;4.18;2.80;;;30.50;58.40;;;;;;6271751;28;20269;-67
2022/07/03 11:17:22;;;;;;;3.90;3.60;;;30.20;59.10;;;;;;6274139;28;20245;-67
2022/07/03 11:20:26;;;;;;;3.78;3.47;;;30.30;58.00;;;;;;6274203;28;20249;-67
2022/07/03 11:23:34;;;;;;;3.97;3.63;;;30.40;57.90;;;;;;6273777;28;20242;-68
2022/07/03 11:26:37;;;;;;;3.55;3.25;;;30.70;57.60;;;;;;6273595;28;20681;-67
2022/07/03 11:29:41;;;;;;;4.13;3.58;;;31.00;57.50;;;;;;6274425;28;20223;-68
2022/07/03 11:32:50;;;;;;;4.38;3.85;;;31.10;58.00;;;;;;6263017;28;20235;-67
2022/07/03 11:35:54;;;;;;;3.80;3.50;;;31.20;57.20;;;;;;6270279;28;20238;-66
2022/07/03 11:39:06;;;;;;;3.58;3.38;;;31.30;57.20;;;;;;6277630;28;20227;-67
2022/07/03 11:42:10;;;;;;;3.85;3.55;;;31.20;57.20;;;;;;6279020;28;20223;-68
2022/07/03 11:45:13;;;;;;;3.60;3.30;;;31.40;57.00;;;;;;6278255;28;20550;-65
2022/07/03 11:48:19;;;;;;;5.38;3.95;;;31.30;57.00;;;;;;6278759;28;20227;-68
2022/07/03 11:51:22;;;;;;;3.78;3.58;;;31.30;57.40;;;;;;6278717;28;20242;-66
2022/07/03 11:54:27;;;;;;;4.32;4.03;;;31.50;57.40;;;;;;6277822;28;20239;-66
2022/07/03 11:57:30;;;;;;;4.22;3.83;;;31.40;57.20;;;;;;6279311;28;20677;-67
2022/07/03 12:00:34;;;;;;;3.78;3.47;;;31.40;57.50;;;;;;6279155;28;20231;-66
2022/07/03 12:03:38;;;;;;;3.60;3.30;;;31.50;57.60;;;;;;6278408;28;20306;-65
2022/07/03 12:06:44;;;;;;;3.72;3.42;;;31.40;57.50;;;;;;6277975;28;20566;-66
2022/07/03 12:09:51;;;;;;;3.63;3.33;;;31.50;57.60;;;;;;6277398;28;20698;-66
2022/07/03 12:12:54;;;;;;;3.35;3.05;;;31.60;57.00;;;;;;6277593;28;20231;-65
2022/07/03 12:16:09;;;;;;;3.95;3.63;;;31.70;57.10;;;;;;6276925;28;20250;-64
2022/07/03 12:19:13;;;;;;;3.70;3.40;;;31.50;57.20;;;;;;6301731;28;20222;-65
2022/07/03 12:22:24;;;;;;;4.50;3.40;;;31.50;57.10;;;;;;6302435;28;20203;-65
2022/07/03 12:25:30;;;;;;;3.90;3.60;;;31.60;57.00;;;;;;6301762;28;20250;-64
2022/07/03 12:28:33;;;;;;;4.10;3.70;;;31.70;56.70;;;;;;6302233;28;20245;-65
2022/07/03 12:31:40;;;;;;;3.60;3.28;;;31.80;56.70;;;;;;6304598;28;20241;-65
2022/07/03 12:34:45;;;;;;;3.50;3.20;;;32.00;56.60;;;;;;6327091;28;20225;-66
2022/07/03 12:37:48;;;;;;;3.83;3.53;;;32.10;55.90;;;;;;6328439;28;20221;-65
2022/07/03 12:41:03;;;;;;;3.63;3.42;;;32.20;55.90;;;;;;6327949;28;20218;-65
2022/07/03 12:44:06;;;;;;;3.28;2.97;;;32.20;56.10;;;;;;6312482;28;20233;-65
2022/07/03 12:47:10;;;;;;;3.92;3.50;;;32.20;56.50;;;;;;6301595;28;20234;-65
2022/07/03 12:50:15;;;;;;;4.20;3.90;;;32.10;56.60;;;;;;6300463;28;20238;-64
2022/07/03 12:53:28;;;;;;;4.10;3.70;;;32.00;56.40;;;;;;6301331;28;20237;-64
2022/07/03 12:56:31;;;;;;;4.20;3.80;;;31.90;57.10;;;;;;6301116;28;20682;-65
2022/07/03 12:59:33;;;;;;;3.97;3.42;;;31.90;57.30;;;;;;6300002;28;20219;-65
2022/07/03 13:02:38;;;;;;;4.63;3.80;;;31.90;56.70;;;;;;6300847;28;20558;-65
2022/07/03 13:05:44;;;;;;;4.15;3.75;;;32.00;56.90;;;;;;6300611;28;20332;-66
2022/07/03 13:08:55;;;;;;;4.05;3.75;;;32.10;56.40;;;;;;6300546;28;20234;-66
2022/07/03 13:11:59;;;;;;;4.35;4.05;;;32.20;56.50;;;;;;6297791;28;20228;-65
2022/07/03 13:15:03;;;;;;;4.22;3.92;;;32.30;56.50;;;;;;6300287;28;20218;-65
2022/07/03 13:18:06;;;;;;;3.95;3.30;;;32.10;56.60;;;;;;6300106;28;20237;-64
2022/07/03 13:21:10;;;;;;;4.43;4.13;;;32.10;57.00;;;;;;6300073;28;20249;-65
2022/07/03 13:24:15;;;;;;;4.55;4.18;;;32.20;56.90;;;;;;6300197;28;20562;-66
2022/07/03 13:27:19;;;;;;;4.55;4.15;;;32.30;56.70;;;;;;6300235;28;20296;-65
2022/07/03 13:30:22;;;;;;;3.78;3.53;;;32.30;56.30;;;;;;6300335;28;20231;-66
2022/07/03 13:33:25;;;;;;;3.65;3.35;;;32.30;56.90;;;;;;6318087;28;20217;-66
2022/07/03 13:36:32;;;;;;;4.00;3.70;;;32.30;56.60;;;;;;6325310;28;20225;-68
2022/07/03 13:39:35;;;;;;;4.90;4.53;;;32.20;56.80;;;;;;6325221;28;20236;-68
2022/07/03 13:42:38;;;;;;;5.20;3.58;;;32.10;57.00;;;;;;6308442;28;20580;-67
2022/07/03 13:45:43;;;;;;;3.80;3.50;;;32.00;57.30;;;;;;6290010;28;20222;-67
2022/07/03 13:48:46;;;;;;;4.00;3.65;;;32.00;57.20;;;;;;6298994;28;20226;-66
2022/07/03 13:51:51;;;;;;;3.90;3.60;;;32.10;56.70;;;;;;6299438;28;20218;-67
2022/07/03 13:54:54;;;;;;;3.90;3.60;;;32.10;56.70;;;;;;6298800;28;20776;-67
2022/07/03 13:57:57;;;;;;;4.40;4.00;;;32.10;56.50;;;;;;6298990;28;20226;-67
2022/07/03 14:01:01;;;;;;;6.00;4.28;;;32.10;57.30;;;;;;6298977;28;20221;-68
2022/07/03 14:04:04;;;;;;;4.40;3.72;;;32.20;57.40;;;;;;6298821;28;20214;-68
2022/07/03 14:07:09;;;;;;;4.30;3.90;;;32.20;56.10;;;;;;6299183;28;20214;-66
2022/07/03 14:10:12;;;;;;;3.90;3.60;;;32.10;56.40;;;;;;6299482;28;20226;-64
2022/07/03 14:13:15;;;;;;;4.30;4.00;;;32.10;56.40;;;;;;6299016;28;20245;-65
2022/07/03 14:16:19;;;;;;;4.22;3.88;;;32.20;55.80;;;;;;6299484;28;20194;-67
2022/07/03 14:19:22;;;;;;;4.53;4.15;;;32.10;56.40;;;;;;6299091;28;20245;-66
2022/07/03 14:22:27;;;;;;;4.10;3.80;;;32.00;56.60;;;;;;6299715;28;20222;-66
2022/07/03 14:25:30;;;;;;;4.07;3.75;;;32.10;56.60;;;;;;6299300;28;20237;-69
2022/07/03 14:35:15;;;;;;;4.13;3.83;;;32.30;55.80;;;;;;6299516;28;20234;-65
2022/07/03 14:38:20;;;;;;;4.22;3.92;;;32.30;55.80;;;;;;6299133;28;20551;-66
2022/07/03 14:41:23;;;;;;;3.85;3.55;;;32.30;56.20;;;;;;6299167;28;20222;-67
2022/07/03 14:44:26;;;;;;;3.95;3.65;;;32.40;56.10;;;;;;6298756;28;20315;-67
2022/07/03 14:47:31;;;;;;;3.42;3.13;;;32.50;55.80;;;;;;6294407;28;20249;-68
2022/07/03 14:50:34;;;;;;;5.47;3.53;;;32.60;55.60;;;;;;6298392;28;20570;-68
2022/07/03 14:53:39;;;;;;;3.80;3.50;;;32.50;54.90;;;;;;6298566;28;20227;-67
2022/07/03 14:56:47;;;;;;;3.45;3.25;;;32.50;55.00;;;;;;6295736;28;20218;-67
2022/07/03 15:00:03;;;;;;;5.28;4.15;;;32.60;55.20;;;;;;6298883;28;20238;-67
2022/07/03 15:03:07;;;;;;;4.90;3.30;;;32.30;55.30;;;;;;6299211;28;20241;-67
2022/07/03 15:06:15;;;;;;;4.80;3.80;;;32.40;55.30;;;;;;6299418;28;20552;-64
2022/07/03 15:09:29;;;;;;;3.65;3.35;;;32.50;55.20;;;;;;6299202;28;20230;-65
2022/07/03 15:12:34;;;;;;;4.15;3.83;;;32.50;55.50;;;;;;6299749;28;20223;-66
2022/07/03 15:15:40;;;;;;;4.95;3.70;;;32.60;54.80;;;;;;6303311;28;20226;-64
2022/07/03 15:18:44;;;;;;;4.53;4.20;;;32.60;55.00;;;;;;6303245;28;20237;-65
2022/07/03 15:21:49;;;;;;;4.57;4.00;;;32.70;55.00;;;;;;6302961;28;20230;-64
2022/07/03 15:24:54;;;;;;;4.70;4.30;;;32.90;54.80;;;;;;6302575;28;20219;-66
2022/07/03 15:27:57;;;;;;;4.70;4.30;;;32.80;54.90;;;;;;6302047;28;20230;-66
2022/07/03 15:31:01;;;;;;;4.18;3.88;;;32.80;54.50;;;;;;6302940;28;20227;-65
2022/07/03 15:34:06;;;;;;;5.47;3.97;;;32.70;54.70;;;;;;6325682;28;20305;-66
2022/07/03 15:37:19;;;;;;;4.00;3.70;;;32.60;54.90;;;;;;6314870;28;20195;-65
2022/07/03 15:40:27;;;;;;;4.28;3.85;;;32.60;55.10;;;;;;6303173;28;20222;-65
2022/07/03 15:43:50;;;;;;;3.90;3.67;;;32.60;55.00;;;;;;6302894;28;20226;-67
2022/07/03 15:47:06;;;;;;;3.70;3.40;;;32.70;54.80;;;;;;6303239;28;20234;-65
2022/07/03 15:50:11;;;;;;;3.50;3.20;;;32.50;55.00;;;;;;6302645;28;20227;-65
2022/07/03 15:53:20;;;;;;;3.58;3.35;;;32.30;55.80;;;;;;6302676;28;20384;-64
2022/07/03 15:56:27;;;;;;;3.95;3.65;;;32.20;56.10;;;;;;6302752;28;20231;-66
2022/07/03 15:59:35;;;;;;;4.55;3.40;;;32.30;55.80;;;;;;6301880;28;20236;-67
2022/07/03 16:02:55;;;;;;;3.92;3.63;;;32.40;54.90;;;;;;6302437;28;20222;-64
2022/07/03 16:06:04;;;;;;;4.03;3.72;;;32.50;55.00;;;;;;6302274;28;20226;-64
2022/07/03 16:09:07;;;;;;;5.22;3.65;;;32.50;55.70;;;;;;6301501;28;20245;-63
2022/07/03 16:12:16;;;;;;;4.28;3.88;;;32.30;56.20;;;;;;6301665;28;20248;-63
2022/07/03 16:15:20;;;;;;;4.00;3.60;;;32.30;55.80;;;;;;6302089;28;20564;-65
2022/07/03 16:18:25;;;;;;;6.03;4.30;;;32.30;56.00;;;;;;6303211;28;20232;-64
2022/07/03 16:21:30;;;;;;;4.15;3.85;;;32.20;56.00;;;;;;6306405;28;20289;-65